sensor_id;sensor_type;location;lat;lon;timestamp;P1;durP1;ratioP1;P2;durP2;ratioP2
15043;SDS011;7619;48.562;8.910;2023-11-18T00:01:07;6.57;;;2.50;;
15043;SDS011;7619;48.562;8.910;2023-11-18T00:03:35;3.03;;;2.77;;
15043;SDS011;7619;48.562;8.910;2023-11-18T00:06:04;2.83;;;2.27;;
15043;SDS011;7619;48.562;8.910;2023-11-18T00:08:33;2.67;;;2.27;;
15043;SDS011;7619;48.562;8.910;2023-11-18T00:11:03;2.90;;;2.00;;
15043;SDS011;7619;48.562;8.910;2023-11-18T00:13:31;2.70;;;2.13;;
15043;SDS011;7619;48.562;8.910;2023-11-18T00:15:59;2.67;;;2.33;;
15043;SDS011;7619;48.562;8.910;2023-11-18T00:18:27;2.43;;;2.23;;
15043;SDS011;7619;48.562;8.910;2023-11-18T00:20:57;4.90;;;2.47;;
15043;SDS011;7619;48.562;8.910;2023-11-18T00:23:25;2.77;;;2.50;;
15043;SDS011;7619;48.562;8.910;2023-11-18T00:25:55;3.07;;;2.60;;
15043;SDS011;7619;48.562;8.910;2023-11-18T00:28:24;2.17;;;1.97;;
15043;SDS011;7619;48.562;8.910;2023-11-18T00:30:52;2.90;;;2.60;;
15043;SDS011;7619;48.562;8.910;2023-11-18T00:33:20;3.07;;;2.40;;
15043;SDS011;7619;48.562;8.910;2023-11-18T00:35:49;2.50;;;2.30;;
15043;SDS011;7619;48.562;8.910;2023-11-18T00:38:17;3.33;;;2.40;;
15043;SDS011;7619;48.562;8.910;2023-11-18T00:40:45;2.43;;;2.00;;
15043;SDS011;7619;48.562;8.910;2023-11-18T00:43:14;3.90;;;2.90;;
15043;SDS011;7619;48.562;8.910;2023-11-18T00:45:42;3.43;;;2.70;;
15043;SDS011;7619;48.562;8.910;2023-11-18T00:48:10;2.93;;;2.43;;
15043;SDS011;7619;48.562;8.910;2023-11-18T00:50:39;2.70;;;2.40;;
15043;SDS011;7619;48.562;8.910;2023-11-18T00:53:07;3.37;;;2.70;;
15043;SDS011;7619;48.562;8.910;2023-11-18T00:55:36;2.77;;;2.57;;
15043;SDS011;7619;48.562;8.910;2023-11-18T00:58:05;2.70;;;2.50;;
15043;SDS011;7619;48.562;8.910;2023-11-18T01:00:33;4.00;;;2.63;;
15043;SDS011;7619;48.562;8.910;2023-11-18T01:03:03;3.00;;;2.53;;
15043;SDS011;7619;48.562;8.910;2023-11-18T01:05:31;2.47;;;2.27;;
15043;SDS011;7619;48.562;8.910;2023-11-18T01:07:59;4.30;;;2.67;;
15043;SDS011;7619;48.562;8.910;2023-11-18T01:10:27;3.87;;;2.77;;
15043;SDS011;7619;48.562;8.910;2023-11-18T01:12:56;2.47;;;2.27;;
15043;SDS011;7619;48.562;8.910;2023-11-18T01:15:25;4.70;;;2.50;;
15043;SDS011;7619;48.562;8.910;2023-11-18T01:17:53;2.53;;;2.20;;
15043;SDS011;7619;48.562;8.910;2023-11-18T01:20:22;2.67;;;2.47;;
15043;SDS011;7619;48.562;8.910;2023-11-18T01:22:50;2.20;;;2.00;;
15043;SDS011;7619;48.562;8.910;2023-11-18T01:25:18;2.30;;;2.10;;
15043;SDS011;7619;48.562;8.910;2023-11-18T01:27:46;2.20;;;1.80;;
15043;SDS011;7619;48.562;8.910;2023-11-18T01:30:15;2.20;;;2.00;;
15043;SDS011;7619;48.562;8.910;2023-11-18T01:32:43;2.30;;;2.00;;
15043;SDS011;7619;48.562;8.910;2023-11-18T01:35:11;2.33;;;1.83;;
15043;SDS011;7619;48.562;8.910;2023-11-18T01:37:39;1.80;;;1.70;;
15043;SDS011;7619;48.562;8.910;2023-11-18T01:40:08;2.13;;;1.93;;
15043;SDS011;7619;48.562;8.910;2023-11-18T01:42:40;1.90;;;1.80;;
15043;SDS011;7619;48.562;8.910;2023-11-18T01:45:09;2.60;;;1.90;;
15043;SDS011;7619;48.562;8.910;2023-11-18T01:47:38;3.67;;;1.97;;
15043;SDS011;7619;48.562;8.910;2023-11-18T01:50:07;2.77;;;1.60;;
15043;SDS011;7619;48.562;8.910;2023-11-18T01:52:38;2.20;;;1.80;;
15043;SDS011;7619;48.562;8.910;2023-11-18T01:55:07;2.00;;;1.80;;
15043;SDS011;7619;48.562;8.910;2023-11-18T01:57:35;3.37;;;1.80;;
15043;SDS011;7619;48.562;8.910;2023-11-18T02:00:05;2.03;;;1.63;;
15043;SDS011;7619;48.562;8.910;2023-11-18T02:02:35;3.53;;;2.03;;
15043;SDS011;7619;48.562;8.910;2023-11-18T02:05:04;2.93;;;1.93;;
15043;SDS011;7619;48.562;8.910;2023-11-18T02:07:34;3.97;;;2.07;;
15043;SDS011;7619;48.562;8.910;2023-11-18T02:10:04;2.03;;;1.80;;
15043;SDS011;7619;48.562;8.910;2023-11-18T02:12:37;2.10;;;1.90;;
15043;SDS011;7619;48.562;8.910;2023-11-18T02:15:07;2.90;;;2.30;;
15043;SDS011;7619;48.562;8.910;2023-11-18T02:17:38;1.80;;;1.70;;
15043;SDS011;7619;48.562;8.910;2023-11-18T02:20:08;4.47;;;2.33;;
15043;SDS011;7619;48.562;8.910;2023-11-18T02:22:38;2.40;;;2.20;;
15043;SDS011;7619;48.562;8.910;2023-11-18T02:25:09;2.80;;;2.33;;
15043;SDS011;7619;48.562;8.910;2023-11-18T02:27:38;2.87;;;2.60;;
15043;SDS011;7619;48.562;8.910;2023-11-18T02:30:07;2.27;;;2.07;;
15043;SDS011;7619;48.562;8.910;2023-11-18T02:32:39;2.40;;;2.20;;
15043;SDS011;7619;48.562;8.910;2023-11-18T02:35:09;2.73;;;2.23;;
15043;SDS011;7619;48.562;8.910;2023-11-18T02:37:38;2.80;;;2.40;;
15043;SDS011;7619;48.562;8.910;2023-11-18T02:40:09;4.33;;;2.20;;
15043;SDS011;7619;48.562;8.910;2023-11-18T02:42:41;2.70;;;2.50;;
15043;SDS011;7619;48.562;8.910;2023-11-18T02:45:10;2.83;;;2.63;;
15043;SDS011;7619;48.562;8.910;2023-11-18T02:47:41;2.73;;;2.30;;
15043;SDS011;7619;48.562;8.910;2023-11-18T02:50:09;2.43;;;2.17;;
15043;SDS011;7619;48.562;8.910;2023-11-18T02:52:38;2.80;;;2.53;;
15043;SDS011;7619;48.562;8.910;2023-11-18T02:55:06;2.67;;;2.40;;
15043;SDS011;7619;48.562;8.910;2023-11-18T02:57:35;2.87;;;2.20;;
15043;SDS011;7619;48.562;8.910;2023-11-18T03:00:05;2.80;;;2.60;;
15043;SDS011;7619;48.562;8.910;2023-11-18T03:02:35;2.60;;;2.40;;
15043;SDS011;7619;48.562;8.910;2023-11-18T03:05:06;4.13;;;2.13;;
15043;SDS011;7619;48.562;8.910;2023-11-18T03:07:36;2.37;;;2.00;;
15043;SDS011;7619;48.562;8.910;2023-11-18T03:10:05;2.50;;;2.10;;
15043;SDS011;7619;48.562;8.910;2023-11-18T03:12:36;3.17;;;2.50;;
15043;SDS011;7619;48.562;8.910;2023-11-18T03:15:06;3.03;;;2.27;;
15043;SDS011;7619;48.562;8.910;2023-11-18T03:17:36;2.70;;;2.50;;
15043;SDS011;7619;48.562;8.910;2023-11-18T03:20:06;3.17;;;2.50;;
15043;SDS011;7619;48.562;8.910;2023-11-18T03:22:36;2.70;;;2.37;;
15043;SDS011;7619;48.562;8.910;2023-11-18T03:25:05;2.60;;;2.37;;
15043;SDS011;7619;48.562;8.910;2023-11-18T03:27:34;3.07;;;2.30;;
15043;SDS011;7619;48.562;8.910;2023-11-18T03:30:04;2.47;;;1.83;;
15043;SDS011;7619;48.562;8.910;2023-11-18T03:32:33;3.13;;;2.60;;
15043;SDS011;7619;48.562;8.910;2023-11-18T03:35:02;7.80;;;2.63;;
15043;SDS011;7619;48.562;8.910;2023-11-18T03:37:31;2.63;;;2.33;;
15043;SDS011;7619;48.562;8.910;2023-11-18T03:39:59;3.50;;;2.80;;
15043;SDS011;7619;48.562;8.910;2023-11-18T03:42:27;2.70;;;2.50;;
15043;SDS011;7619;48.562;8.910;2023-11-18T03:44:56;2.87;;;2.30;;
15043;SDS011;7619;48.562;8.910;2023-11-18T03:47:24;3.03;;;2.20;;
15043;SDS011;7619;48.562;8.910;2023-11-18T03:49:52;2.70;;;2.23;;
15043;SDS011;7619;48.562;8.910;2023-11-18T03:52:21;3.33;;;3.03;;
15043;SDS011;7619;48.562;8.910;2023-11-18T03:54:50;3.57;;;2.90;;
15043;SDS011;7619;48.562;8.910;2023-11-18T03:57:18;2.90;;;2.53;;
15043;SDS011;7619;48.562;8.910;2023-11-18T03:59:46;3.20;;;2.67;;
15043;SDS011;7619;48.562;8.910;2023-11-18T04:02:14;3.37;;;2.60;;
15043;SDS011;7619;48.562;8.910;2023-11-18T04:04:42;2.60;;;2.30;;
15043;SDS011;7619;48.562;8.910;2023-11-18T04:07:10;3.30;;;2.70;;
15043;SDS011;7619;48.562;8.910;2023-11-18T04:09:38;3.87;;;3.20;;
15043;SDS011;7619;48.562;8.910;2023-11-18T04:12:08;3.67;;;3.03;;
15043;SDS011;7619;48.562;8.910;2023-11-18T04:14:36;3.60;;;3.00;;
15043;SDS011;7619;48.562;8.910;2023-11-18T04:17:04;3.20;;;2.90;;
15043;SDS011;7619;48.562;8.910;2023-11-18T04:19:32;4.37;;;3.87;;
15043;SDS011;7619;48.562;8.910;2023-11-18T04:22:02;4.67;;;4.07;;
15043;SDS011;7619;48.562;8.910;2023-11-18T04:24:31;4.23;;;3.83;;
15043;SDS011;7619;48.562;8.910;2023-11-18T04:26:59;3.33;;;2.83;;
15043;SDS011;7619;48.562;8.910;2023-11-18T04:29:28;3.60;;;3.27;;
15043;SDS011;7619;48.562;8.910;2023-11-18T04:31:57;3.90;;;3.30;;
15043;SDS011;7619;48.562;8.910;2023-11-18T04:34:26;3.90;;;3.07;;
15043;SDS011;7619;48.562;8.910;2023-11-18T04:36:54;4.00;;;3.30;;
15043;SDS011;7619;48.562;8.910;2023-11-18T04:39:23;4.03;;;3.63;;
15043;SDS011;7619;48.562;8.910;2023-11-18T04:41:52;5.63;;;3.63;;
15043;SDS011;7619;48.562;8.910;2023-11-18T04:44:20;4.97;;;3.47;;
15043;SDS011;7619;48.562;8.910;2023-11-18T04:46:49;3.80;;;3.17;;
15043;SDS011;7619;48.562;8.910;2023-11-18T04:49:17;3.80;;;2.90;;
15043;SDS011;7619;48.562;8.910;2023-11-18T04:51:46;5.07;;;3.13;;
15043;SDS011;7619;48.562;8.910;2023-11-18T04:54:14;3.77;;;3.37;;
15043;SDS011;7619;48.562;8.910;2023-11-18T04:56:42;4.37;;;3.27;;
15043;SDS011;7619;48.562;8.910;2023-11-18T04:59:11;4.00;;;3.60;;
15043;SDS011;7619;48.562;8.910;2023-11-18T05:01:39;4.10;;;3.50;;
15043;SDS011;7619;48.562;8.910;2023-11-18T05:04:07;4.77;;;3.57;;
15043;SDS011;7619;48.562;8.910;2023-11-18T05:06:36;3.90;;;3.43;;
15043;SDS011;7619;48.562;8.910;2023-11-18T05:09:04;4.57;;;3.63;;
15043;SDS011;7619;48.562;8.910;2023-11-18T05:11:34;4.47;;;4.07;;
15043;SDS011;7619;48.562;8.910;2023-11-18T05:14:02;6.20;;;4.93;;
15043;SDS011;7619;48.562;8.910;2023-11-18T05:16:31;6.97;;;5.10;;
15043;SDS011;7619;48.562;8.910;2023-11-18T05:18:59;6.53;;;5.17;;
15043;SDS011;7619;48.562;8.910;2023-11-18T05:21:27;9.47;;;5.10;;
15043;SDS011;7619;48.562;8.910;2023-11-18T05:23:55;7.83;;;5.13;;
15043;SDS011;7619;48.562;8.910;2023-11-18T05:26:24;10.63;;;5.43;;
15043;SDS011;7619;48.562;8.910;2023-11-18T05:28:53;7.20;;;5.97;;
15043;SDS011;7619;48.562;8.910;2023-11-18T05:31:21;8.30;;;6.00;;
15043;SDS011;7619;48.562;8.910;2023-11-18T05:33:50;7.33;;;5.97;;
15043;SDS011;7619;48.562;8.910;2023-11-18T05:36:20;6.13;;;5.07;;
15043;SDS011;7619;48.562;8.910;2023-11-18T05:38:50;6.83;;;4.93;;
15043;SDS011;7619;48.562;8.910;2023-11-18T05:41:18;6.10;;;4.73;;
15043;SDS011;7619;48.562;8.910;2023-11-18T05:43:48;4.97;;;4.03;;
15043;SDS011;7619;48.562;8.910;2023-11-18T05:46:18;5.50;;;4.60;;
15043;SDS011;7619;48.562;8.910;2023-11-18T05:48:49;5.57;;;4.40;;
15043;SDS011;7619;48.562;8.910;2023-11-18T05:51:21;8.23;;;5.30;;
15043;SDS011;7619;48.562;8.910;2023-11-18T05:53:49;5.50;;;4.00;;
15043;SDS011;7619;48.562;8.910;2023-11-18T05:56:18;4.20;;;3.77;;
15043;SDS011;7619;48.562;8.910;2023-11-18T05:58:49;4.57;;;3.80;;
15043;SDS011;7619;48.562;8.910;2023-11-18T06:01:17;4.57;;;3.87;;
15043;SDS011;7619;48.562;8.910;2023-11-18T06:03:45;5.20;;;4.10;;
15043;SDS011;7619;48.562;8.910;2023-11-18T06:06:14;4.80;;;4.00;;
15043;SDS011;7619;48.562;8.910;2023-11-18T06:08:43;5.60;;;4.13;;
15043;SDS011;7619;48.562;8.910;2023-11-18T06:11:11;7.20;;;5.30;;
15043;SDS011;7619;48.562;8.910;2023-11-18T06:13:43;6.83;;;5.00;;
15043;SDS011;7619;48.562;8.910;2023-11-18T06:16:13;6.87;;;5.70;;
15043;SDS011;7619;48.562;8.910;2023-11-18T06:18:42;6.77;;;5.30;;
15043;SDS011;7619;48.562;8.910;2023-11-18T06:21:12;6.17;;;5.27;;
15043;SDS011;7619;48.562;8.910;2023-11-18T06:23:41;8.53;;;6.20;;
15043;SDS011;7619;48.562;8.910;2023-11-18T06:26:09;10.07;;;7.50;;
15043;SDS011;7619;48.562;8.910;2023-11-18T06:28:38;9.87;;;6.83;;
15043;SDS011;7619;48.562;8.910;2023-11-18T06:31:07;7.90;;;6.23;;
15043;SDS011;7619;48.562;8.910;2023-11-18T06:33:39;7.77;;;5.73;;
15043;SDS011;7619;48.562;8.910;2023-11-18T06:36:10;11.83;;;6.80;;
15043;SDS011;7619;48.562;8.910;2023-11-18T06:38:39;10.07;;;7.17;;
15043;SDS011;7619;48.562;8.910;2023-11-18T06:41:07;11.53;;;6.10;;
15043;SDS011;7619;48.562;8.910;2023-11-18T06:43:37;10.07;;;6.70;;
15043;SDS011;7619;48.562;8.910;2023-11-18T06:46:15;9.70;;;5.70;;
15043;SDS011;7619;48.562;8.910;2023-11-18T06:48:43;7.73;;;5.87;;
15043;SDS011;7619;48.562;8.910;2023-11-18T06:51:11;6.53;;;5.47;;
15043;SDS011;7619;48.562;8.910;2023-11-18T06:53:39;6.93;;;4.90;;
15043;SDS011;7619;48.562;8.910;2023-11-18T06:56:08;7.87;;;5.57;;
15043;SDS011;7619;48.562;8.910;2023-11-18T06:58:37;8.00;;;5.83;;
15043;SDS011;7619;48.562;8.910;2023-11-18T07:01:06;6.60;;;5.33;;
15043;SDS011;7619;48.562;8.910;2023-11-18T07:03:34;7.23;;;5.23;;
15043;SDS011;7619;48.562;8.910;2023-11-18T07:06:04;8.73;;;5.83;;
15043;SDS011;7619;48.562;8.910;2023-11-18T07:08:33;8.27;;;5.20;;
15043;SDS011;7619;48.562;8.910;2023-11-18T07:11:02;7.83;;;5.17;;
15043;SDS011;7619;48.562;8.910;2023-11-18T07:13:30;8.87;;;5.57;;
15043;SDS011;7619;48.562;8.910;2023-11-18T07:16:00;6.90;;;5.17;;
15043;SDS011;7619;48.562;8.910;2023-11-18T07:18:31;8.67;;;5.80;;
15043;SDS011;7619;48.562;8.910;2023-11-18T07:23:35;7.23;;;5.27;;
15043;SDS011;7619;48.562;8.910;2023-11-18T07:26:04;7.87;;;5.80;;
15043;SDS011;7619;48.562;8.910;2023-11-18T07:28:33;8.80;;;5.93;;
15043;SDS011;7619;48.562;8.910;2023-11-18T07:31:01;11.07;;;5.47;;
15043;SDS011;7619;48.562;8.910;2023-11-18T07:33:31;12.63;;;6.20;;
15043;SDS011;7619;48.562;8.910;2023-11-18T07:35:59;7.90;;;5.77;;
15043;SDS011;7619;48.562;8.910;2023-11-18T07:38:29;6.90;;;5.53;;
15043;SDS011;7619;48.562;8.910;2023-11-18T07:40:59;6.10;;;5.50;;
15043;SDS011;7619;48.562;8.910;2023-11-18T07:43:29;6.83;;;5.10;;
15043;SDS011;7619;48.562;8.910;2023-11-18T07:45:57;9.13;;;5.40;;
15043;SDS011;7619;48.562;8.910;2023-11-18T07:48:26;6.20;;;5.10;;
15043;SDS011;7619;48.562;8.910;2023-11-18T07:50:55;7.30;;;5.03;;
15043;SDS011;7619;48.562;8.910;2023-11-18T07:53:23;6.93;;;5.23;;
15043;SDS011;7619;48.562;8.910;2023-11-18T07:55:52;7.23;;;5.83;;
15043;SDS011;7619;48.562;8.910;2023-11-18T07:58:21;4.67;;;4.17;;
15043;SDS011;7619;48.562;8.910;2023-11-18T08:00:50;6.60;;;4.77;;
15043;SDS011;7619;48.562;8.910;2023-11-18T08:03:18;5.70;;;4.43;;
15043;SDS011;7619;48.562;8.910;2023-11-18T08:05:47;10.53;;;7.17;;
15043;SDS011;7619;48.562;8.910;2023-11-18T08:08:16;7.20;;;5.57;;
15043;SDS011;7619;48.562;8.910;2023-11-18T08:10:44;9.93;;;6.50;;
15043;SDS011;7619;48.562;8.910;2023-11-18T08:13:14;5.43;;;4.70;;
15043;SDS011;7619;48.562;8.910;2023-11-18T08:15:43;5.60;;;4.30;;
15043;SDS011;7619;48.562;8.910;2023-11-18T08:18:12;5.27;;;4.43;;
15043;SDS011;7619;48.562;8.910;2023-11-18T08:20:41;5.70;;;4.60;;
15043;SDS011;7619;48.562;8.910;2023-11-18T08:23:10;5.40;;;4.40;;
15043;SDS011;7619;48.562;8.910;2023-11-18T08:25:38;4.90;;;4.07;;
15043;SDS011;7619;48.562;8.910;2023-11-18T08:28:07;4.73;;;3.80;;
15043;SDS011;7619;48.562;8.910;2023-11-18T08:30:37;5.40;;;4.03;;
15043;SDS011;7619;48.562;8.910;2023-11-18T08:33:06;6.40;;;3.63;;
15043;SDS011;7619;48.562;8.910;2023-11-18T08:35:36;4.70;;;3.40;;
15043;SDS011;7619;48.562;8.910;2023-11-18T08:38:04;5.27;;;3.93;;
15043;SDS011;7619;48.562;8.910;2023-11-18T08:40:34;5.13;;;4.10;;
15043;SDS011;7619;48.562;8.910;2023-11-18T08:43:02;4.73;;;3.73;;
15043;SDS011;7619;48.562;8.910;2023-11-18T08:45:32;4.63;;;4.00;;
15043;SDS011;7619;48.562;8.910;2023-11-18T08:48:02;4.07;;;3.37;;
15043;SDS011;7619;48.562;8.910;2023-11-18T08:50:33;4.17;;;3.60;;
15043;SDS011;7619;48.562;8.910;2023-11-18T08:53:01;5.40;;;3.57;;
15043;SDS011;7619;48.562;8.910;2023-11-18T08:55:32;5.43;;;3.67;;
15043;SDS011;7619;48.562;8.910;2023-11-18T08:58:07;3.60;;;3.30;;
15043;SDS011;7619;48.562;8.910;2023-11-18T09:00:44;7.37;;;4.07;;
15043;SDS011;7619;48.562;8.910;2023-11-18T09:03:17;3.70;;;3.37;;
15043;SDS011;7619;48.562;8.910;2023-11-18T09:05:47;4.43;;;3.03;;
15043;SDS011;7619;48.562;8.910;2023-11-18T09:08:17;3.97;;;3.37;;
15043;SDS011;7619;48.562;8.910;2023-11-18T09:10:46;4.23;;;3.63;;
15043;SDS011;7619;48.562;8.910;2023-11-18T09:13:15;4.33;;;3.30;;
15043;SDS011;7619;48.562;8.910;2023-11-18T09:15:44;3.57;;;3.17;;
15043;SDS011;7619;48.562;8.910;2023-11-18T09:18:13;4.33;;;3.27;;
15043;SDS011;7619;48.562;8.910;2023-11-18T09:20:43;4.70;;;3.10;;
15043;SDS011;7619;48.562;8.910;2023-11-18T09:23:12;2.47;;;2.27;;
15043;SDS011;7619;48.562;8.910;2023-11-18T09:25:42;2.63;;;2.43;;
15043;SDS011;7619;48.562;8.910;2023-11-18T09:28:12;2.93;;;2.47;;
15043;SDS011;7619;48.562;8.910;2023-11-18T09:30:42;2.53;;;2.27;;
15043;SDS011;7619;48.562;8.910;2023-11-18T09:33:13;4.03;;;2.50;;
15043;SDS011;7619;48.562;8.910;2023-11-18T09:35:43;2.40;;;2.20;;
15043;SDS011;7619;48.562;8.910;2023-11-18T09:38:12;3.17;;;2.30;;
15043;SDS011;7619;48.562;8.910;2023-11-18T09:40:40;3.17;;;2.43;;
15043;SDS011;7619;48.562;8.910;2023-11-18T09:43:10;5.73;;;2.63;;
15043;SDS011;7619;48.562;8.910;2023-11-18T09:45:40;3.57;;;2.70;;
15043;SDS011;7619;48.562;8.910;2023-11-18T09:48:10;3.37;;;2.70;;
15043;SDS011;7619;48.562;8.910;2023-11-18T09:50:40;5.13;;;2.93;;
15043;SDS011;7619;48.562;8.910;2023-11-18T09:53:10;3.17;;;2.80;;
15043;SDS011;7619;48.562;8.910;2023-11-18T09:55:42;2.77;;;2.40;;
15043;SDS011;7619;48.562;8.910;2023-11-18T09:58:09;3.03;;;2.63;;
15043;SDS011;7619;48.562;8.910;2023-11-18T10:00:40;3.77;;;2.30;;
15043;SDS011;7619;48.562;8.910;2023-11-18T10:03:09;4.30;;;2.73;;
15043;SDS011;7619;48.562;8.910;2023-11-18T10:05:40;2.50;;;2.23;;
15043;SDS011;7619;48.562;8.910;2023-11-18T10:08:09;5.70;;;2.80;;
15043;SDS011;7619;48.562;8.910;2023-11-18T10:10:37;3.90;;;2.13;;
15043;SDS011;7619;48.562;8.910;2023-11-18T10:13:07;3.07;;;2.70;;
15043;SDS011;7619;48.562;8.910;2023-11-18T10:15:37;3.03;;;2.30;;
15043;SDS011;7619;48.562;8.910;2023-11-18T10:18:06;2.77;;;2.47;;
15043;SDS011;7619;48.562;8.910;2023-11-18T10:20:46;2.90;;;2.50;;
15043;SDS011;7619;48.562;8.910;2023-11-18T10:23:14;3.30;;;2.60;;
15043;SDS011;7619;48.562;8.910;2023-11-18T10:25:46;2.67;;;2.10;;
15043;SDS011;7619;48.562;8.910;2023-11-18T10:28:22;3.00;;;2.13;;
15043;SDS011;7619;48.562;8.910;2023-11-18T10:30:51;2.57;;;2.37;;
15043;SDS011;7619;48.562;8.910;2023-11-18T10:33:19;2.80;;;2.20;;
15043;SDS011;7619;48.562;8.910;2023-11-18T10:35:51;3.63;;;2.27;;
15043;SDS011;7619;48.562;8.910;2023-11-18T10:38:21;3.73;;;2.50;;
15043;SDS011;7619;48.562;8.910;2023-11-18T10:40:55;3.27;;;2.53;;
15043;SDS011;7619;48.562;8.910;2023-11-18T10:43:24;2.37;;;2.00;;
15043;SDS011;7619;48.562;8.910;2023-11-18T10:46:03;3.33;;;2.17;;
15043;SDS011;7619;48.562;8.910;2023-11-18T10:48:25;2.00;;;1.80;;
15043;SDS011;7619;48.562;8.910;2023-11-18T10:50:53;2.10;;;1.87;;
15043;SDS011;7619;48.562;8.910;2023-11-18T10:53:21;2.60;;;2.00;;
15043;SDS011;7619;48.562;8.910;2023-11-18T10:55:50;3.03;;;2.07;;
15043;SDS011;7619;48.562;8.910;2023-11-18T10:58:18;2.20;;;2.00;;
15043;SDS011;7619;48.562;8.910;2023-11-18T11:00:47;4.00;;;1.80;;
15043;SDS011;7619;48.562;8.910;2023-11-18T11:03:16;3.03;;;1.43;;
15043;SDS011;7619;48.562;8.910;2023-11-18T11:05:45;3.60;;;2.10;;
15043;SDS011;7619;48.562;8.910;2023-11-18T11:08:14;1.40;;;1.30;;
15043;SDS011;7619;48.562;8.910;2023-11-18T11:10:43;3.13;;;1.60;;
15043;SDS011;7619;48.562;8.910;2023-11-18T11:13:12;1.83;;;1.43;;
15043;SDS011;7619;48.562;8.910;2023-11-18T11:15:42;3.47;;;1.80;;
15043;SDS011;7619;48.562;8.910;2023-11-18T11:18:12;2.03;;;1.33;;
15043;SDS011;7619;48.562;8.910;2023-11-18T11:20:45;2.83;;;1.70;;
15043;SDS011;7619;48.562;8.910;2023-11-18T11:23:14;3.27;;;2.97;;
15043;SDS011;7619;48.562;8.910;2023-11-18T11:25:48;1.50;;;1.40;;
15043;SDS011;7619;48.562;8.910;2023-11-18T11:28:19;2.17;;;1.27;;
15043;SDS011;7619;48.562;8.910;2023-11-18T11:30:49;3.27;;;1.53;;
15043;SDS011;7619;48.562;8.910;2023-11-18T11:33:20;1.20;;;1.10;;
15043;SDS011;7619;48.562;8.910;2023-11-18T11:35:51;2.40;;;1.63;;
15043;SDS011;7619;48.562;8.910;2023-11-18T11:38:19;1.50;;;1.27;;
15043;SDS011;7619;48.562;8.910;2023-11-18T11:40:49;3.23;;;1.70;;
15043;SDS011;7619;48.562;8.910;2023-11-18T11:43:19;2.67;;;1.67;;
15043;SDS011;7619;48.562;8.910;2023-11-18T11:45:49;1.40;;;1.27;;
15043;SDS011;7619;48.562;8.910;2023-11-18T11:48:20;1.53;;;1.30;;
15043;SDS011;7619;48.562;8.910;2023-11-18T11:50:57;2.80;;;1.93;;
15043;SDS011;7619;48.562;8.910;2023-11-18T11:53:26;4.17;;;1.17;;
15043;SDS011;7619;48.562;8.910;2023-11-18T11:55:56;4.60;;;1.60;;
15043;SDS011;7619;48.562;8.910;2023-11-18T11:58:27;2.20;;;1.43;;
15043;SDS011;7619;48.562;8.910;2023-11-18T12:00:59;2.33;;;1.47;;
15043;SDS011;7619;48.562;8.910;2023-11-18T12:03:30;3.63;;;1.53;;
15043;SDS011;7619;48.562;8.910;2023-11-18T12:06:00;2.43;;;1.60;;
15043;SDS011;7619;48.562;8.910;2023-11-18T12:08:30;1.37;;;1.00;;
15043;SDS011;7619;48.562;8.910;2023-11-18T12:10:58;8.53;;;1.47;;
15043;SDS011;7619;48.562;8.910;2023-11-18T12:13:28;1.47;;;1.33;;
15043;SDS011;7619;48.562;8.910;2023-11-18T12:15:58;1.70;;;1.07;;
15043;SDS011;7619;48.562;8.910;2023-11-18T12:18:27;2.37;;;1.37;;
15043;SDS011;7619;48.562;8.910;2023-11-18T12:20:57;1.93;;;1.30;;
15043;SDS011;7619;48.562;8.910;2023-11-18T12:23:27;1.63;;;1.07;;
15043;SDS011;7619;48.562;8.910;2023-11-18T12:25:57;1.80;;;1.30;;
15043;SDS011;7619;48.562;8.910;2023-11-18T12:28:25;1.30;;;1.20;;
15043;SDS011;7619;48.562;8.910;2023-11-18T12:30:54;2.27;;;2.07;;
15043;SDS011;7619;48.562;8.910;2023-11-18T12:33:51;2.30;;;1.00;;
15043;SDS011;7619;48.562;8.910;2023-11-18T12:38:49;1.20;;;1.10;;
15043;SDS011;7619;48.562;8.910;2023-11-18T12:41:21;4.47;;;1.10;;
15043;SDS011;7619;48.562;8.910;2023-11-18T12:43:55;1.33;;;1.20;;
15043;SDS011;7619;48.562;8.910;2023-11-18T12:49:14;2.37;;;1.30;;
15043;SDS011;7619;48.562;8.910;2023-11-18T12:51:43;2.63;;;1.83;;
15043;SDS011;7619;48.562;8.910;2023-11-18T12:54:12;1.73;;;1.50;;
15043;SDS011;7619;48.562;8.910;2023-11-18T12:56:42;5.03;;;1.93;;
15043;SDS011;7619;48.562;8.910;2023-11-18T12:59:13;3.30;;;1.93;;
15043;SDS011;7619;48.562;8.910;2023-11-18T13:01:43;2.10;;;1.73;;
15043;SDS011;7619;48.562;8.910;2023-11-18T13:04:13;10.67;;;3.67;;
15043;SDS011;7619;48.562;8.910;2023-11-18T13:06:41;18.93;;;10.90;;
15043;SDS011;7619;48.562;8.910;2023-11-18T13:09:09;3.00;;;2.20;;
15043;SDS011;7619;48.562;8.910;2023-11-18T13:11:38;2.90;;;2.20;;
15043;SDS011;7619;48.562;8.910;2023-11-18T13:14:07;3.27;;;1.80;;
15043;SDS011;7619;48.562;8.910;2023-11-18T13:16:36;3.03;;;2.50;;
15043;SDS011;7619;48.562;8.910;2023-11-18T13:19:04;2.60;;;1.93;;
15043;SDS011;7619;48.562;8.910;2023-11-18T13:21:33;2.77;;;2.20;;
15043;SDS011;7619;48.562;8.910;2023-11-18T13:24:04;2.97;;;2.37;;
15043;SDS011;7619;48.562;8.910;2023-11-18T13:26:38;2.90;;;2.20;;
15043;SDS011;7619;48.562;8.910;2023-11-18T13:29:07;5.17;;;2.33;;
15043;SDS011;7619;48.562;8.910;2023-11-18T13:31:37;5.47;;;2.47;;
15043;SDS011;7619;48.562;8.910;2023-11-18T13:34:08;2.50;;;1.90;;
15043;SDS011;7619;48.562;8.910;2023-11-18T13:36:37;3.53;;;2.27;;
15043;SDS011;7619;48.562;8.910;2023-11-18T13:39:07;4.70;;;2.93;;
15043;SDS011;7619;48.562;8.910;2023-11-18T13:41:38;4.83;;;3.27;;
15043;SDS011;7619;48.562;8.910;2023-11-18T13:44:08;2.10;;;1.90;;
15043;SDS011;7619;48.562;8.910;2023-11-18T13:46:39;3.13;;;1.93;;
15043;SDS011;7619;48.562;8.910;2023-11-18T13:49:13;6.93;;;2.43;;
15043;SDS011;7619;48.562;8.910;2023-11-18T13:51:41;3.00;;;2.20;;
15043;SDS011;7619;48.562;8.910;2023-11-18T13:54:12;2.57;;;2.17;;
15043;SDS011;7619;48.562;8.910;2023-11-18T13:56:41;3.30;;;1.93;;
15043;SDS011;7619;48.562;8.910;2023-11-18T13:59:09;4.57;;;2.00;;
15043;SDS011;7619;48.562;8.910;2023-11-18T14:01:38;2.30;;;1.80;;
15043;SDS011;7619;48.562;8.910;2023-11-18T14:04:06;2.17;;;1.70;;
15043;SDS011;7619;48.562;8.910;2023-11-18T14:06:36;3.60;;;2.03;;
15043;SDS011;7619;48.562;8.910;2023-11-18T14:09:06;1.93;;;1.40;;
15043;SDS011;7619;48.562;8.910;2023-11-18T14:11:35;2.67;;;1.80;;
15043;SDS011;7619;48.562;8.910;2023-11-18T14:14:04;5.37;;;1.80;;
15043;SDS011;7619;48.562;8.910;2023-11-18T14:16:32;3.20;;;1.90;;
15043;SDS011;7619;48.562;8.910;2023-11-18T14:19:01;1.90;;;1.60;;
15043;SDS011;7619;48.562;8.910;2023-11-18T14:21:30;2.37;;;2.00;;
15043;SDS011;7619;48.562;8.910;2023-11-18T14:23:58;3.10;;;2.53;;
15043;SDS011;7619;48.562;8.910;2023-11-18T14:26:29;4.93;;;3.37;;
15043;SDS011;7619;48.562;8.910;2023-11-18T14:28:58;2.90;;;1.90;;
15043;SDS011;7619;48.562;8.910;2023-11-18T14:31:26;2.70;;;1.70;;
15043;SDS011;7619;48.562;8.910;2023-11-18T14:33:55;4.70;;;2.03;;
15043;SDS011;7619;48.562;8.910;2023-11-18T14:36:25;9.83;;;1.60;;
15043;SDS011;7619;48.562;8.910;2023-11-18T14:38:53;2.40;;;1.63;;
15043;SDS011;7619;48.562;8.910;2023-11-18T14:41:23;3.37;;;2.17;;
15043;SDS011;7619;48.562;8.910;2023-11-18T14:43:53;4.27;;;2.00;;
15043;SDS011;7619;48.562;8.910;2023-11-18T14:46:21;3.43;;;2.07;;
15043;SDS011;7619;48.562;8.910;2023-11-18T14:48:50;2.60;;;2.00;;
15043;SDS011;7619;48.562;8.910;2023-11-18T14:51:18;1.73;;;1.63;;
15043;SDS011;7619;48.562;8.910;2023-11-18T14:53:47;2.30;;;1.90;;
15043;SDS011;7619;48.562;8.910;2023-11-18T14:56:15;5.33;;;2.10;;
15043;SDS011;7619;48.562;8.910;2023-11-18T14:58:45;3.23;;;2.47;;
15043;SDS011;7619;48.562;8.910;2023-11-18T15:01:15;4.03;;;2.40;;
15043;SDS011;7619;48.562;8.910;2023-11-18T15:03:45;4.83;;;2.30;;
15043;SDS011;7619;48.562;8.910;2023-11-18T15:06:13;2.60;;;1.60;;
15043;SDS011;7619;48.562;8.910;2023-11-18T15:08:43;3.50;;;1.93;;
15043;SDS011;7619;48.562;8.910;2023-11-18T15:11:11;1.87;;;1.57;;
15043;SDS011;7619;48.562;8.910;2023-11-18T15:13:41;4.00;;;1.90;;
15043;SDS011;7619;48.562;8.910;2023-11-18T15:16:10;8.53;;;4.27;;
15043;SDS011;7619;48.562;8.910;2023-11-18T15:18:38;12.47;;;7.93;;
15043;SDS011;7619;48.562;8.910;2023-11-18T15:21:07;12.00;;;7.70;;